createdAt,value
2018-12-18T00:00:24.710Z,165.25
2018-12-18T00:00:59.262Z,183.52
2018-12-18T00:01:34.490Z,170.62
2018-12-18T00:02:12.802Z,163.37
2018-12-18T00:02:50.822Z,166.82
2018-12-18T00:03:25.630Z,169.40
2018-12-18T00:04:00.342Z,178.85
2018-12-18T00:04:35.103Z,185.10
2018-12-18T00:05:14.784Z,185.32
2018-12-18T00:05:49.462Z,184.80
2018-12-18T00:06:24.203Z,180.45
2018-12-18T00:06:58.883Z,190.00
2018-12-18T00:07:33.504Z,187.45
2018-12-18T00:08:08.143Z,182.68
2018-12-18T00:08:43.026Z,187.65
2018-12-18T00:09:17.873Z,178.85
2018-12-18T00:09:52.502Z,173.62
2018-12-18T00:10:31.164Z,173.43
2018-12-18T00:11:07.890Z,187.77
2018-12-18T00:11:42.530Z,184.32
2018-12-18T00:12:17.242Z,184.13
2018-12-18T00:12:51.923Z,178.65
2018-12-18T00:13:26.583Z,186.00
2018-12-18T00:14:01.242Z,196.37
2018-12-18T00:14:35.942Z,194.20
2018-12-18T00:15:10.590Z,180.75
2018-12-18T00:15:45.270Z,179.93
2018-12-18T00:16:19.982Z,192.35
2018-12-18T00:16:54.702Z,189.90
2018-12-18T00:17:29.342Z,190.47
2018-12-18T00:18:03.882Z,184.15
2018-12-18T00:18:38.482Z,192.80
2018-12-18T00:19:13.130Z,185.32
2018-12-18T00:19:47.762Z,193.32
2018-12-18T00:20:22.342Z,206.30
2018-12-18T00:20:56.982Z,189.03
2018-12-18T00:21:31.563Z,190.65
2018-12-18T00:22:06.862Z,187.53
2018-12-18T00:22:41.383Z,185.00
2018-12-18T00:23:16.043Z,176.15
2018-12-18T00:23:50.642Z,173.72
2018-12-18T00:24:25.503Z,181.75
2018-12-18T00:25:00.082Z,169.25
2018-12-18T00:25:34.741Z,163.65
2018-12-18T00:26:09.242Z,170.92
2018-12-18T00:26:43.964Z,177.95
2018-12-18T00:27:18.503Z,170.55
2018-12-18T00:27:53.143Z,180.65
2018-12-18T00:28:27.743Z,183.03
2018-12-18T00:29:03.362Z,192.43
2018-12-18T00:29:38.024Z,174.42
2018-12-18T00:30:12.622Z,171.25
2018-12-18T00:30:47.202Z,185.18
2018-12-18T00:31:21.910Z,194.15
2018-12-18T00:31:56.685Z,186.52
2018-12-18T00:32:31.223Z,189.93
2018-12-18T00:33:06.022Z,196.18
2018-12-18T00:33:46.084Z,195.53
2018-12-18T00:34:17.463Z,198.85
2018-12-18T00:34:52.282Z,204.47
2018-12-18T00:35:26.983Z,220.57
2018-12-18T00:36:01.602Z,226.60
2018-12-18T00:36:36.283Z,229.43
2018-12-18T00:37:11.022Z,234.40
2018-12-18T00:37:45.522Z,236.12
2018-12-18T00:38:20.165Z,237.72
2018-12-18T00:38:54.602Z,241.35
2018-12-18T00:39:29.204Z,252.50
2018-12-18T00:40:04.330Z,241.15
2018-12-18T00:40:38.963Z,247.95
2018-12-18T00:41:13.761Z,243.82
2018-12-18T00:41:48.522Z,247.75
2018-12-18T00:42:23.183Z,243.35
2018-12-18T00:42:57.825Z,246.70
2018-12-18T00:43:32.422Z,233.53
2018-12-18T00:44:06.982Z,242.75
2018-12-18T00:44:41.862Z,232.00
2018-12-18T00:45:16.502Z,237.27
2018-12-18T00:45:51.182Z,235.88
2018-12-18T00:46:25.843Z,219.80
2018-12-18T00:47:00.423Z,215.10
2018-12-18T00:47:35.210Z,217.05
2018-12-18T00:48:10.002Z,223.65
2018-12-18T00:48:44.823Z,215.10
2018-12-18T00:49:19.476Z,213.45
2018-12-18T00:49:54.262Z,212.75
2018-12-18T00:50:28.862Z,219.95
2018-12-18T00:51:03.622Z,219.05
2018-12-18T00:51:38.302Z,219.07
2018-12-18T00:52:12.970Z,216.42
2018-12-18T00:52:47.562Z,216.23
2018-12-18T00:53:22.230Z,224.98
2018-12-18T00:53:56.862Z,217.95
2018-12-18T00:54:31.704Z,234.52
2018-12-18T00:55:06.304Z,241.82
2018-12-18T00:55:41.150Z,231.53
2018-12-18T00:56:15.704Z,220.00
2018-12-18T00:56:50.322Z,266.27
2018-12-18T00:57:25.002Z,236.62
2018-12-18T00:57:59.624Z,219.65
2018-12-18T00:58:34.144Z,240.28
2018-12-18T00:59:08.643Z,232.35
2018-12-18T00:59:43.262Z,230.60
2018-12-18T01:00:19.906Z,225.25
2018-12-18T01:00:54.664Z,217.53
2018-12-18T01:01:29.311Z,219.50
2018-12-18T01:02:03.923Z,213.87
2018-12-18T01:02:38.762Z,223.00
2018-12-18T01:03:13.290Z,237.97
2018-12-18T01:03:52.735Z,221.87
2018-12-18T01:04:24.742Z,222.40
2018-12-18T01:04:59.283Z,229.35
2018-12-18T01:05:33.922Z,222.45
2018-12-18T01:06:08.623Z,211.07
2018-12-18T01:06:43.363Z,225.55
2018-12-18T01:07:18.570Z,223.18
2018-12-18T01:07:53.551Z,216.17
2018-12-18T01:08:28.404Z,219.50
2018-12-18T01:09:03.162Z,216.65
2018-12-18T01:09:37.903Z,221.35
2018-12-18T01:10:12.423Z,215.68
2018-12-18T01:10:47.223Z,221.00
2018-12-18T01:11:22.023Z,201.88
2018-12-18T01:11:56.724Z,203.80
2018-12-18T01:12:31.323Z,185.85
2018-12-18T01:13:06.063Z,162.82
2018-12-18T01:13:40.571Z,169.55
2018-12-18T01:14:15.204Z,156.85
2018-12-18T01:14:49.925Z,162.75
2018-12-18T01:15:24.750Z,150.62
2018-12-18T01:15:59.383Z,153.82
2018-12-18T01:16:34.322Z,153.55
2018-12-18T01:17:09.043Z,148.02
2018-12-18T01:17:43.762Z,138.55
2018-12-18T01:18:18.384Z,144.07
2018-12-18T01:18:53.143Z,150.27
2018-12-18T01:19:27.743Z,145.57
2018-12-18T01:20:02.402Z,154.35
2018-12-18T01:20:37.043Z,144.40
2018-12-18T01:21:11.704Z,146.55
2018-12-18T01:21:46.643Z,138.82
2018-12-18T01:22:21.348Z,137.03
2018-12-18T01:22:56.083Z,132.93
2018-12-18T01:23:30.811Z,144.68
2018-12-18T01:24:05.723Z,160.40
2018-12-18T01:24:40.364Z,153.35
2018-12-18T01:25:15.003Z,161.92
2018-12-18T01:25:49.623Z,156.35
2018-12-18T01:26:24.282Z,151.12
2018-12-18T01:26:59.084Z,157.37
2018-12-18T01:27:33.704Z,151.22
2018-12-18T01:28:08.302Z,150.32
2018-12-18T01:28:42.863Z,158.65
2018-12-18T01:29:17.463Z,152.32
2018-12-18T01:29:51.971Z,159.82
2018-12-18T01:30:26.603Z,149.47
2018-12-18T01:31:01.304Z,158.78
2018-12-18T01:31:36.103Z,158.37
2018-12-18T01:32:10.723Z,160.63
2018-12-18T01:32:45.988Z,165.97
2018-12-18T01:33:21.311Z,165.80
2018-12-18T01:33:59.474Z,156.93
2018-12-18T01:34:33.829Z,165.77
2018-12-18T01:35:09.027Z,152.38
2018-12-18T01:35:44.128Z,165.47
2018-12-18T01:36:19.134Z,157.30
2018-12-18T01:36:54.128Z,162.97
2018-12-18T01:37:29.329Z,164.62
2018-12-18T01:38:04.369Z,165.12
2018-12-18T01:38:39.410Z,165.95
2018-12-18T01:39:14.549Z,166.60
2018-12-18T01:39:49.729Z,169.93
2018-12-18T01:40:24.887Z,177.43
2018-12-18T01:40:59.992Z,165.18
2018-12-18T01:41:35.450Z,155.95
2018-12-18T01:42:10.707Z,161.45
2018-12-18T01:42:45.910Z,159.10
2018-12-18T01:43:20.912Z,159.15
2018-12-18T01:43:55.975Z,153.40
2018-12-18T01:44:31.026Z,155.35
2018-12-18T01:45:06.347Z,145.07
2018-12-18T01:45:41.490Z,154.12
2018-12-18T01:46:16.610Z,143.90
2018-12-18T01:46:51.673Z,152.75
2018-12-18T01:47:26.809Z,153.47
2018-12-18T01:48:01.927Z,150.50
2018-12-18T01:48:37.108Z,159.75
2018-12-18T01:49:12.626Z,155.78
2018-12-18T01:49:47.821Z,166.03
2018-12-18T01:50:23.067Z,146.95
2018-12-18T01:50:58.109Z,151.30
2018-12-18T01:51:33.328Z,160.03
2018-12-18T01:52:08.595Z,191.50
2018-12-18T01:52:43.671Z,165.60
2018-12-18T01:53:19.090Z,174.35
2018-12-18T01:53:54.227Z,181.07
2018-12-18T01:54:29.388Z,157.07
2018-12-18T01:55:06.869Z,165.55
2018-12-18T01:55:42.147Z,160.45
2018-12-18T01:56:17.381Z,178.93
2018-12-18T01:56:52.370Z,177.10
2018-12-18T01:57:27.388Z,164.50
2018-12-18T01:58:02.731Z,174.42
2018-12-18T01:58:37.828Z,176.80
2018-12-18T01:59:12.989Z,164.82
2018-12-18T01:59:48.029Z,170.70
2018-12-18T02:00:23.129Z,168.50
2018-12-18T02:00:58.428Z,173.70
2018-12-18T02:01:33.449Z,182.78
2018-12-18T02:02:08.548Z,162.03
2018-12-18T02:02:43.736Z,187.45
2018-12-18T02:03:18.833Z,176.27
2018-12-18T02:03:54.129Z,175.38
2018-12-18T02:04:29.187Z,177.35
2018-12-18T02:05:04.540Z,167.87
2018-12-18T02:05:39.850Z,171.82
2018-12-18T02:06:14.875Z,169.60
2018-12-18T02:06:50.089Z,179.30
2018-12-18T02:07:25.229Z,177.57
2018-12-18T02:08:00.191Z,181.82
2018-12-18T02:08:35.348Z,195.40
2018-12-18T02:09:11.372Z,185.37
2018-12-18T02:09:46.491Z,184.67
2018-12-18T02:10:21.468Z,171.28
2018-12-18T02:10:56.789Z,172.15
2018-12-18T02:11:31.947Z,168.87
2018-12-18T02:12:07.247Z,167.50
2018-12-18T02:12:42.596Z,174.97
2018-12-18T02:13:17.608Z,158.70
2018-12-18T02:13:52.811Z,158.12
2018-12-18T02:14:28.007Z,171.85
2018-12-18T02:15:03.429Z,171.53
2018-12-18T02:15:38.671Z,188.97
2018-12-18T02:16:13.866Z,171.30
2018-12-18T02:16:49.052Z,178.25
2018-12-18T02:17:24.251Z,172.65
2018-12-18T02:17:59.268Z,160.52
2018-12-18T02:18:34.390Z,173.50
2018-12-18T02:19:09.690Z,166.62
2018-12-18T02:19:44.852Z,170.72
2018-12-18T02:20:19.911Z,175.57
2018-12-18T02:20:55.149Z,177.93
2018-12-18T02:21:30.590Z,171.95
2018-12-18T02:22:05.775Z,174.27
2018-12-18T02:22:40.731Z,175.32
2018-12-18T02:23:15.809Z,168.90
2018-12-18T02:23:50.789Z,172.15
2018-12-18T02:24:25.949Z,170.07
2018-12-18T02:25:01.092Z,171.37
2018-12-18T02:25:36.129Z,167.22
2018-12-18T02:26:11.230Z,167.07
2018-12-18T02:26:46.450Z,181.47
2018-12-18T02:27:21.550Z,161.57
2018-12-18T02:27:56.750Z,172.85
2018-12-18T02:28:31.830Z,168.65
2018-12-18T02:29:06.932Z,168.85
2018-12-18T02:29:42.069Z,158.93
2018-12-18T02:30:17.472Z,166.47
2018-12-18T02:30:52.750Z,163.68
2018-12-18T02:31:27.935Z,165.75
2018-12-18T02:32:02.949Z,170.80
2018-12-18T02:32:38.053Z,165.73
2018-12-18T02:33:13.135Z,169.93
2018-12-18T02:33:48.569Z,161.70
2018-12-18T02:34:24.005Z,174.55
2018-12-18T02:34:59.015Z,165.30
2018-12-18T02:35:34.293Z,162.70
2018-12-18T02:36:09.764Z,168.70
2018-12-18T02:36:44.913Z,165.37
2018-12-18T02:37:19.964Z,171.00
2018-12-18T02:37:55.047Z,175.53
2018-12-18T02:38:30.149Z,172.53
2018-12-18T02:39:07.359Z,158.20
2018-12-18T02:39:42.574Z,161.32
2018-12-18T02:40:17.888Z,157.60
2018-12-18T02:40:52.989Z,174.72
2018-12-18T02:41:28.050Z,174.35
2018-12-18T02:42:03.256Z,186.67
2018-12-18T02:42:38.567Z,177.35
2018-12-18T02:43:13.788Z,177.78
2018-12-18T02:43:48.780Z,193.50
2018-12-18T02:44:23.830Z,177.85
2018-12-18T02:44:58.890Z,183.62
2018-12-18T02:45:34.069Z,180.27
2018-12-18T02:46:09.270Z,186.60
2018-12-18T02:46:44.473Z,183.68
2018-12-18T02:47:19.868Z,195.55
2018-12-18T02:47:55.216Z,183.27
2018-12-18T02:48:30.451Z,206.20
2018-12-18T02:49:05.752Z,188.37
2018-12-18T02:49:40.874Z,189.07
2018-12-18T02:50:15.891Z,209.30
2018-12-18T02:50:50.910Z,202.28
2018-12-18T02:51:26.028Z,209.83
2018-12-18T02:52:01.103Z,211.50
2018-12-18T02:52:36.192Z,203.92
2018-12-18T02:53:11.292Z,191.98
2018-12-18T02:53:46.349Z,196.30
2018-12-18T02:54:21.578Z,200.05
2018-12-18T02:54:56.791Z,190.45
2018-12-18T02:55:32.030Z,195.95
2018-12-18T02:56:07.110Z,193.70
2018-12-18T02:56:42.497Z,182.75
2018-12-18T02:57:17.857Z,191.95
2018-12-18T02:57:52.888Z,197.98
2018-12-18T02:58:28.013Z,193.72
2018-12-18T02:59:03.049Z,172.22
2018-12-18T02:59:38.271Z,183.05
2018-12-18T03:00:13.284Z,183.42
2018-12-18T03:00:48.731Z,196.63
2018-12-18T03:01:23.832Z,180.07
2018-12-18T03:01:59.095Z,179.12
2018-12-18T03:02:34.292Z,168.90
2018-12-18T03:03:09.413Z,167.47
2018-12-18T03:03:44.510Z,174.85
2018-12-18T03:04:21.783Z,182.22
2018-12-18T03:04:56.912Z,159.80
2018-12-18T03:05:31.993Z,179.50
2018-12-18T03:06:07.336Z,186.90
2018-12-18T03:06:42.771Z,180.75
2018-12-18T03:07:18.089Z,180.45
2018-12-18T03:07:53.430Z,186.25
2018-12-18T03:08:28.651Z,180.67
2018-12-18T03:09:05.652Z,194.50
2018-12-18T03:09:40.771Z,185.22
2018-12-18T03:10:15.872Z,176.40
2018-12-18T03:10:51.257Z,184.97
2018-12-18T03:11:26.523Z,171.35
2018-12-18T03:12:01.809Z,167.82
2018-12-18T03:12:37.232Z,183.87
2018-12-18T03:13:12.374Z,182.62
2018-12-18T03:13:47.633Z,170.87
2018-12-18T03:14:22.848Z,190.65
2018-12-18T03:14:58.214Z,184.87
2018-12-18T03:15:33.313Z,191.82
2018-12-18T03:16:08.491Z,213.52
2018-12-18T03:16:43.747Z,200.43
2018-12-18T03:17:19.173Z,198.30
2018-12-18T03:17:54.492Z,206.68
2018-12-18T03:18:29.828Z,198.55
2018-12-18T03:19:05.155Z,192.87
2018-12-18T03:19:40.495Z,211.87
2018-12-18T03:20:15.670Z,214.60
2018-12-18T03:20:51.011Z,194.17
2018-12-18T03:21:26.211Z,196.28
2018-12-18T03:22:01.330Z,188.25
2018-12-18T03:22:36.512Z,196.78
2018-12-18T03:23:11.874Z,205.87
2018-12-18T03:23:47.182Z,185.73
2018-12-18T03:24:22.331Z,173.75
2018-12-18T03:24:57.712Z,194.40
2018-12-18T03:25:32.910Z,175.07
2018-12-18T03:26:08.245Z,171.85
2018-12-18T03:26:43.751Z,176.87
2018-12-18T03:27:18.888Z,173.28
2018-12-18T03:27:53.934Z,166.57
2018-12-18T03:28:29.247Z,181.85
2018-12-18T03:29:04.549Z,189.07
2018-12-18T03:29:39.693Z,177.15
2018-12-18T03:30:14.837Z,184.50
2018-12-18T03:30:50.072Z,224.80
2018-12-18T03:31:25.493Z,227.93
2018-12-18T03:32:05.795Z,179.57
2018-12-18T03:32:44.837Z,192.72
2018-12-18T03:33:20.250Z,181.72
2018-12-18T03:33:55.635Z,173.05
2018-12-18T03:34:30.871Z,171.45
2018-12-18T03:35:06.031Z,207.95
2018-12-18T03:35:41.383Z,209.85
2018-12-18T03:36:16.494Z,207.15
2018-12-18T03:36:52.075Z,177.12
2018-12-18T03:37:27.389Z,187.35
2018-12-18T03:38:02.792Z,192.45
2018-12-18T03:38:37.810Z,199.68
2018-12-18T03:39:13.033Z,185.37
2018-12-18T03:39:48.066Z,195.55
2018-12-18T03:40:23.286Z,187.57
2018-12-18T03:40:58.828Z,197.65
2018-12-18T03:41:33.404Z,187.40
2018-12-18T03:42:08.063Z,184.13
2018-12-18T03:42:42.643Z,196.95
2018-12-18T03:43:17.184Z,182.27
2018-12-18T03:43:52.108Z,185.07
2018-12-18T03:44:27.207Z,197.15
2018-12-18T03:45:02.509Z,209.47
2018-12-18T03:45:37.633Z,207.72
2018-12-18T03:46:12.771Z,218.17
2018-12-18T03:46:48.209Z,246.43
2018-12-18T03:47:23.432Z,222.58
2018-12-18T03:47:58.709Z,207.87
2018-12-18T03:48:33.866Z,208.85
2018-12-18T03:49:09.227Z,221.22
2018-12-18T03:49:44.405Z,220.35
2018-12-18T03:50:19.766Z,215.30
2018-12-18T03:50:54.907Z,210.25
2018-12-18T03:51:30.673Z,213.43
2018-12-18T03:52:05.746Z,211.18
2018-12-18T03:52:40.812Z,209.75
2018-12-18T03:53:15.925Z,210.63
2018-12-18T03:53:51.225Z,189.13
2018-12-18T03:54:26.599Z,207.75
2018-12-18T03:55:01.952Z,202.07
2018-12-18T03:55:37.208Z,204.70
2018-12-18T03:56:12.326Z,198.10
2018-12-18T03:56:47.365Z,190.32
2018-12-18T03:57:22.588Z,184.63
2018-12-18T03:57:57.806Z,183.62
2018-12-18T03:58:32.747Z,187.72
2018-12-18T03:59:07.967Z,180.82
2018-12-18T03:59:43.167Z,186.97
2018-12-18T04:00:18.308Z,179.25
2018-12-18T04:00:53.287Z,183.68
2018-12-18T04:01:28.607Z,178.10
2018-12-18T04:02:04.107Z,184.90
2018-12-18T04:02:39.226Z,184.80
2018-12-18T04:03:14.607Z,179.42
2018-12-18T04:03:49.791Z,175.05
2018-12-18T04:04:24.887Z,177.80
2018-12-18T04:05:00.048Z,166.82
2018-12-18T04:05:35.212Z,174.02
2018-12-18T04:06:10.226Z,169.17
2018-12-18T04:06:45.530Z,174.10
2018-12-18T04:07:20.612Z,168.95
2018-12-18T04:07:55.806Z,155.27
2018-12-18T04:08:31.147Z,178.32
2018-12-18T04:09:08.163Z,175.95
2018-12-18T04:09:43.330Z,171.02
2018-12-18T04:10:18.473Z,189.03
2018-12-18T04:10:53.547Z,163.30
2018-12-18T04:11:28.674Z,158.55
2018-12-18T04:12:08.870Z,166.55
2018-12-18T04:12:44.293Z,155.75
2018-12-18T04:13:19.508Z,157.80
2018-12-18T04:13:54.771Z,172.02
2018-12-18T04:14:30.017Z,158.78
2018-12-18T04:15:05.522Z,147.17
2018-12-18T04:15:40.790Z,156.00
2018-12-18T04:16:16.313Z,162.82
2018-12-18T04:16:51.486Z,163.62
2018-12-18T04:17:26.686Z,162.47
2018-12-18T04:18:01.807Z,158.57
2018-12-18T04:18:37.087Z,148.17
2018-12-18T04:19:12.251Z,149.23
2018-12-18T04:19:47.588Z,146.45
2018-12-18T04:20:22.908Z,142.68
2018-12-18T04:20:58.050Z,150.62
2018-12-18T04:21:33.247Z,149.62
2018-12-18T04:22:08.286Z,144.28
2018-12-18T04:22:43.405Z,152.38
2018-12-18T04:23:18.626Z,144.57
2018-12-18T04:23:53.547Z,137.92
2018-12-18T04:24:28.769Z,134.30
2018-12-18T04:25:04.216Z,136.90
2018-12-18T04:25:39.371Z,148.28
2018-12-18T04:26:14.804Z,149.53
2018-12-18T04:26:50.108Z,131.07
2018-12-18T04:27:25.369Z,146.80
2018-12-18T04:28:00.487Z,140.88
2018-12-18T04:28:35.565Z,141.90
2018-12-18T04:29:10.631Z,132.65
2018-12-18T04:29:45.761Z,138.52
2018-12-18T04:30:20.774Z,148.65
2018-12-18T04:30:55.947Z,140.65
2018-12-18T04:31:31.188Z,142.47
2018-12-18T04:32:06.486Z,141.68
2018-12-18T04:32:41.667Z,151.72
2018-12-18T04:33:23.568Z,145.57
2018-12-18T04:33:58.770Z,140.77
2018-12-18T04:34:33.906Z,146.50
2018-12-18T04:35:09.152Z,138.35
2018-12-18T04:35:44.469Z,139.52
2018-12-18T04:36:19.565Z,152.87
2018-12-18T04:36:54.626Z,136.05
2018-12-18T04:37:29.829Z,144.25
2018-12-18T04:38:04.967Z,159.48
2018-12-18T04:38:40.171Z,141.28
2018-12-18T04:39:15.404Z,151.22
2018-12-18T04:39:50.669Z,146.82
2018-12-18T04:40:25.952Z,141.90
2018-12-18T04:41:01.031Z,132.90
2018-12-18T04:41:36.208Z,137.70
2018-12-18T04:42:11.590Z,139.85
2018-12-18T04:42:46.887Z,139.82
2018-12-18T04:43:22.185Z,138.82
2018-12-18T04:43:57.423Z,140.50
2018-12-18T04:44:33.350Z,143.50
2018-12-18T04:45:08.712Z,141.57
2018-12-18T04:45:43.727Z,133.95
2018-12-18T04:46:18.930Z,137.37
2018-12-18T04:46:54.166Z,137.18
2018-12-18T04:47:29.533Z,138.05
2018-12-18T04:48:04.745Z,141.32
2018-12-18T04:48:39.949Z,150.00
2018-12-18T04:49:15.267Z,134.87
2018-12-18T04:49:50.391Z,137.28
2018-12-18T04:50:25.468Z,146.47
2018-12-18T04:51:00.652Z,139.85
2018-12-18T04:51:35.805Z,149.15
2018-12-18T04:52:11.165Z,137.10
2018-12-18T04:52:46.488Z,143.32
2018-12-18T04:53:21.828Z,138.88
2018-12-18T04:53:56.767Z,134.27
2018-12-18T04:54:31.868Z,134.80
2018-12-18T04:55:07.115Z,151.95
2018-12-18T04:55:42.348Z,151.42
2018-12-18T04:56:17.524Z,144.82
2018-12-18T04:56:52.649Z,144.97
2018-12-18T04:57:27.726Z,133.90
2018-12-18T04:58:02.786Z,142.15
2018-12-18T04:58:38.011Z,135.50
2018-12-18T04:59:13.189Z,139.88
2018-12-18T04:59:48.266Z,134.43
2018-12-18T05:00:23.485Z,137.32
2018-12-18T05:00:58.466Z,162.12
2018-12-18T05:01:33.467Z,143.17
2018-12-18T05:02:08.609Z,153.78
2018-12-18T05:02:43.786Z,150.97
2018-12-18T05:03:19.007Z,127.47
2018-12-18T05:03:54.231Z,136.05
2018-12-18T05:04:29.167Z,146.07
2018-12-18T05:05:04.607Z,160.52
2018-12-18T05:05:39.688Z,161.60
2018-12-18T05:06:14.706Z,152.80
2018-12-18T05:06:49.876Z,169.85
2018-12-18T05:07:24.967Z,179.97
2018-12-18T05:08:00.006Z,177.75
2018-12-18T05:08:35.225Z,182.35
2018-12-18T05:09:11.028Z,166.55
2018-12-18T05:09:46.158Z,164.88
2018-12-18T05:10:21.227Z,175.20
2018-12-18T05:10:56.350Z,171.87
2018-12-18T05:11:31.528Z,167.75
2018-12-18T05:12:06.669Z,174.00
2018-12-18T05:12:41.646Z,193.87
2018-12-18T05:13:16.808Z,189.25
2018-12-18T05:13:58.225Z,178.25
2018-12-18T05:14:33.590Z,177.07
2018-12-18T05:15:08.748Z,177.38
2018-12-18T05:15:43.727Z,174.75
2018-12-18T05:16:18.887Z,180.27
2018-12-18T05:16:54.129Z,173.35
2018-12-18T05:17:29.390Z,179.40
2018-12-18T05:18:04.666Z,177.90
2018-12-18T05:18:39.794Z,173.53
2018-12-18T05:19:15.186Z,170.02
2018-12-18T05:19:50.330Z,172.32
2018-12-18T05:20:25.411Z,164.03
2018-12-18T05:21:00.472Z,184.87
2018-12-18T05:21:35.405Z,175.85
2018-12-18T05:22:10.546Z,160.30
2018-12-18T05:22:45.665Z,162.30
2018-12-18T05:23:20.813Z,160.93
2018-12-18T05:23:56.245Z,221.53
2018-12-18T05:24:31.527Z,228.00
2018-12-18T05:25:06.727Z,248.32
2018-12-18T05:25:41.888Z,235.25
2018-12-18T05:26:16.891Z,207.25
2018-12-18T05:26:51.956Z,200.87
2018-12-18T05:27:26.594Z,197.05
2018-12-18T05:28:01.175Z,190.62
2018-12-18T05:28:35.843Z,194.02
2018-12-18T05:29:10.495Z,186.22
2018-12-18T05:29:45.115Z,180.57
2018-12-18T05:30:19.816Z,184.57
2018-12-18T05:30:54.543Z,186.60
2018-12-18T05:31:29.137Z,190.07
2018-12-18T05:32:03.795Z,191.75
2018-12-18T05:32:38.362Z,207.37
2018-12-18T05:33:13.025Z,206.55
2018-12-18T05:33:47.719Z,217.30
2018-12-18T05:34:22.236Z,223.97
2018-12-18T05:34:56.841Z,197.02
2018-12-18T05:35:31.555Z,196.15
2018-12-18T05:36:06.256Z,194.30
2018-12-18T05:36:40.916Z,197.93
2018-12-18T05:37:15.683Z,226.75
2018-12-18T05:37:50.335Z,235.05
2018-12-18T05:38:25.456Z,224.20
2018-12-18T05:39:00.155Z,221.70
2018-12-18T05:39:34.877Z,228.27
2018-12-18T05:40:09.719Z,243.80
2018-12-18T05:40:44.535Z,232.07
2018-12-18T05:41:19.215Z,226.95
2018-12-18T05:41:53.895Z,227.32
2018-12-18T05:42:28.474Z,225.50
2018-12-18T05:43:03.036Z,209.50
2018-12-18T05:43:37.596Z,204.68
2018-12-18T05:44:12.114Z,216.68
2018-12-18T05:44:46.875Z,198.93
2018-12-18T05:45:21.575Z,193.62
2018-12-18T05:45:56.275Z,188.82
2018-12-18T05:46:30.898Z,175.82
2018-12-18T05:47:05.495Z,173.38
2018-12-18T05:47:40.223Z,171.13
2018-12-18T05:48:14.814Z,188.62
2018-12-18T05:48:49.375Z,189.62
2018-12-18T05:49:24.295Z,184.87
2018-12-18T05:49:59.057Z,165.88
2018-12-18T05:50:33.636Z,158.95
2018-12-18T05:51:08.317Z,166.88
2018-12-18T05:51:42.955Z,170.10
2018-12-18T05:52:17.536Z,160.18
2018-12-18T05:52:52.256Z,151.02
2018-12-18T05:53:26.917Z,151.25
2018-12-18T05:54:01.576Z,149.05
2018-12-18T05:54:36.236Z,150.20
2018-12-18T05:55:10.896Z,148.07
2018-12-18T05:55:45.475Z,155.93
2018-12-18T05:56:20.136Z,150.80
2018-12-18T05:56:54.776Z,137.45
2018-12-18T05:57:29.535Z,132.57
2018-12-18T05:58:04.114Z,135.28
2018-12-18T05:58:38.703Z,131.35
2018-12-18T05:59:13.297Z,138.65
2018-12-18T05:59:47.937Z,139.77
2018-12-18T06:00:23.026Z,137.47
2018-12-18T06:00:58.067Z,122.72
2018-12-18T06:01:33.276Z,127.05
2018-12-18T06:02:08.474Z,130.27
2018-12-18T06:02:43.592Z,122.95
2018-12-18T06:03:18.846Z,121.82
2018-12-18T06:03:54.166Z,110.70
2018-12-18T06:04:29.495Z,116.80
2018-12-18T06:05:04.688Z,115.88
2018-12-18T06:05:40.809Z,111.90
2018-12-18T06:06:15.992Z,129.03
2018-12-18T06:06:50.870Z,130.75
2018-12-18T06:07:25.509Z,122.33
2018-12-18T06:08:00.138Z,129.53
2018-12-18T06:08:36.829Z,130.57
2018-12-18T06:09:12.168Z,126.20
2018-12-18T06:09:48.735Z,125.42
2018-12-18T06:10:29.909Z,119.53
2018-12-18T06:11:04.849Z,130.20
2018-12-18T06:11:39.557Z,131.82
2018-12-18T06:12:14.489Z,136.05
2018-12-18T06:13:58.110Z,129.55
2018-12-18T06:14:33.548Z,119.33
2018-12-18T06:15:14.128Z,118.60
2018-12-18T06:15:49.877Z,123.58
2018-12-18T06:16:26.511Z,126.72
2018-12-18T06:17:02.331Z,133.10
2018-12-18T06:17:37.983Z,110.75
2018-12-18T06:18:15.950Z,123.58
2018-12-18T06:18:54.689Z,119.85
2018-12-18T06:19:29.909Z,124.25
2018-12-18T06:20:07.012Z,137.95
2018-12-18T06:20:41.971Z,121.15
2018-12-18T06:21:17.832Z,131.90
2018-12-18T06:21:52.439Z,118.37
2018-12-18T06:22:27.281Z,123.50
2018-12-18T06:23:02.100Z,125.55
2018-12-18T06:23:37.932Z,123.60
2018-12-18T06:24:13.291Z,114.47
2018-12-18T06:24:47.851Z,120.70
2018-12-18T06:25:26.452Z,119.75
2018-12-18T06:26:05.219Z,117.28
2018-12-18T06:26:40.583Z,124.95
2018-12-18T06:27:15.689Z,117.08
2018-12-18T06:27:51.570Z,121.65
2018-12-18T06:28:26.848Z,109.37
2018-12-18T06:29:01.908Z,122.45
2018-12-18T06:29:37.902Z,114.62
2018-12-18T06:30:13.042Z,118.70
2018-12-18T06:30:50.258Z,120.05
2018-12-18T06:31:25.553Z,113.42
2018-12-18T06:32:02.439Z,112.62
2018-12-18T06:32:37.526Z,119.67
2018-12-18T06:33:13.544Z,114.32
2018-12-18T06:33:48.765Z,113.70
2018-12-18T06:34:25.700Z,118.33
2018-12-18T06:35:02.216Z,116.37
2018-12-18T06:35:39.005Z,125.25
2018-12-18T06:36:15.166Z,126.30
2018-12-18T06:36:52.369Z,124.02
2018-12-18T06:37:29.013Z,128.30
2018-12-18T06:38:04.335Z,118.22
2018-12-18T06:38:40.307Z,125.47
2018-12-18T06:39:15.442Z,123.90
2018-12-18T06:39:51.673Z,119.77
2018-12-18T06:40:28.112Z,122.42
2018-12-18T06:41:06.090Z,126.87
2018-12-18T06:41:41.570Z,123.42
2018-12-18T06:42:16.820Z,114.00
2018-12-18T06:42:53.386Z,129.95
2018-12-18T06:43:28.027Z,127.75
2018-12-18T06:44:03.407Z,118.30
2018-12-18T06:44:39.427Z,121.75
2018-12-18T06:45:14.386Z,125.70
2018-12-18T06:45:51.867Z,124.85
2018-12-18T06:46:28.028Z,114.17
2018-12-18T06:47:06.909Z,116.35
2018-12-18T06:47:41.667Z,115.55
2018-12-18T06:48:18.415Z,110.05
2018-12-18T06:48:55.987Z,107.95
2018-12-18T06:49:32.468Z,125.82
2018-12-18T06:50:07.529Z,120.87
2018-12-18T06:50:43.369Z,123.07
2018-12-18T06:51:19.007Z,135.65
2018-12-18T06:51:53.707Z,141.82
2018-12-18T06:52:30.155Z,134.80
2018-12-18T06:53:04.807Z,132.45
2018-12-18T06:53:43.788Z,128.32
2018-12-18T06:54:22.028Z,139.35
2018-12-18T06:54:58.949Z,130.72
2018-12-18T06:55:33.649Z,127.15
2018-12-18T06:56:14.007Z,121.45
2018-12-18T06:56:50.810Z,117.77
2018-12-18T06:57:25.813Z,114.80
2018-12-18T06:58:00.512Z,119.80
2018-12-18T06:58:41.193Z,116.95
2018-12-18T06:59:20.133Z,128.82
2018-12-18T06:59:55.472Z,127.53
2018-12-18T07:00:35.172Z,113.85
2018-12-18T07:01:10.180Z,125.35
2018-12-18T07:01:44.732Z,119.62
2018-12-18T07:02:20.532Z,128.35
2018-12-18T07:02:55.392Z,149.77
2018-12-18T07:03:30.693Z,139.37
2018-12-18T07:04:05.352Z,144.17
2018-12-18T07:04:40.812Z,136.70
2018-12-18T07:05:16.910Z,146.37
2018-12-18T07:05:52.460Z,131.05
2018-12-18T07:06:27.372Z,123.85
2018-12-18T07:07:03.063Z,121.95
2018-12-18T07:07:39.631Z,108.87
2018-12-18T07:08:15.230Z,123.42
2018-12-18T07:08:50.070Z,118.87
2018-12-18T07:09:27.150Z,112.15
2018-12-18T07:10:03.290Z,109.65
2018-12-18T07:10:37.850Z,114.32
2018-12-18T07:11:13.904Z,114.45
2018-12-18T07:11:48.971Z,113.50
2018-12-18T07:12:28.971Z,118.47
2018-12-18T07:13:03.823Z,115.60
2018-12-18T07:13:39.198Z,125.25
2018-12-18T07:14:14.218Z,135.10
2018-12-18T07:14:48.890Z,137.40
2018-12-18T07:15:24.110Z,134.40
2018-12-18T07:16:01.890Z,129.40
2018-12-18T07:16:36.531Z,129.65
2018-12-18T07:17:15.530Z,118.17
2018-12-18T07:17:52.090Z,120.28
2018-12-18T07:18:28.998Z,117.90
2018-12-18T07:19:08.050Z,116.67
2018-12-18T07:19:42.670Z,130.27
2018-12-18T07:20:18.358Z,120.90
2018-12-18T07:20:54.170Z,125.05
2018-12-18T07:21:29.930Z,124.53